Terminal Aerodrome Forecast
Issued by NWS Cleveland, OH

Home | Current Version | Previous Version | Graphics & Text | Print | Product List | Glossary On
Versions: 1 2 3 4 5 6 7 8 9 10 11 12 13 14 15 16 17 18 19 20
000
FTUS41 KCLE 240300 AAB
TAFYNG
TAF AMD
KYNG 240344Z 2404/2424 28006KT P6SM BKN200
     FM241000 VRB03KT 4SM BR BKN006
      TEMPO 2410/2414 2SM BR
     FM241500 26006KT P6SM FEW045 BKN150
     FM242300 26006KT P6SM BKN045 OVC100=

USA.gov is the U.S. government's official web portal to all federal, state and local government web resources and services.